Terminal Aerodrome Forecast
Issued by NWS

Home | Current Version | Previous Version | Text Only | Print | Product List | Glossary On
Versions: 1 2 3 4 5 6 7 8 9 10 11 12 13 14 15 16 17 18 19 20
096
FTUS44 KMAF 221722
TAFCNM
TAF
KCNM 221722Z 2218/2318 12008KT P6SM SCT080
      TEMPO 2222/2302 VRB25G35KT 5SM TSRA BKN040CB
     FM231000 34012G20KT P6SM OVC015=

USA.gov is the U.S. government's official web portal to all federal, state and local government web resources and services.